CU-0020 weather

Lora Airport
HolguĂ­n, Cuba

Public forecast

Using degrees Celsius for public forecast. Weather courtesy of forecast.io.

METAR (pilot weather report)

Closest report is Frank Pais International Airport, 23.7 nm (44.0 km) SSE. Retrieved 2019/05/27 12:50 UTC (13 minutes ago):

MUHG 271250Z 11009KT 9000 SCT020 BKN100 25/23 Q1015

TAF (pilot weather forecast)

Closest forecast is Frank Pais International Airport, 23.7 nm (44.0 km) SSE. Retrieved 2019/05/27 12:03 UTC (1 hour ago):

TAF MUHG 271100Z 2712/2812 VRB03KT 9000 SCT020 BECMG 2715/2717 08012KT TEMPO 2718/2724 VRB10KT 5000 TSRA SCT018CB BKN020 BECMG 2802/2804 VRB03KT